createdAt,value
2018-07-21T00:03:46.029Z,77.00
2018-07-21T00:07:49.288Z,77.20
2018-07-21T00:11:52.865Z,76.90
2018-07-21T00:15:56.117Z,77.50
2018-07-21T00:19:59.523Z,78.80
2018-07-21T00:24:03.005Z,78.90
2018-07-21T00:28:06.270Z,80.00
2018-07-21T00:32:09.552Z,79.90
2018-07-21T00:36:12.851Z,80.80
2018-07-21T00:40:16.082Z,81.60
2018-07-21T00:44:19.350Z,82.40
2018-07-21T00:48:22.591Z,83.00
2018-07-21T00:52:25.846Z,83.50
2018-07-21T00:56:29.133Z,84.10
2018-07-21T01:00:32.379Z,85.10
2018-07-21T01:04:35.666Z,86.00
2018-07-21T01:08:38.902Z,86.30
2018-07-21T01:12:42.664Z,86.70
2018-07-21T01:16:45.918Z,87.40
2018-07-21T01:20:49.261Z,87.40
2018-07-21T01:24:52.507Z,87.90
2018-07-21T01:29:02.465Z,88.30
2018-07-21T01:33:05.731Z,89.70
2018-07-21T01:37:08.984Z,90.50
2018-07-21T01:41:12.269Z,91.30
2018-07-21T01:45:15.549Z,92.20
2018-07-21T01:49:18.785Z,92.70
2018-07-21T01:53:22.055Z,93.10
2018-07-21T01:57:25.373Z,93.00
2018-07-21T02:01:28.741Z,93.20
2018-07-21T02:05:32.011Z,93.00
2018-07-21T02:09:35.228Z,93.10
2018-07-21T02:13:38.473Z,93.30
2018-07-21T02:17:41.777Z,93.50
2018-07-21T02:21:45.014Z,93.70
2018-07-21T02:25:48.270Z,94.20
2018-07-21T02:29:51.552Z,94.30
2018-07-21T02:33:54.835Z,94.20
2018-07-21T02:37:58.116Z,94.30
2018-07-21T02:46:04.543Z,94.40
2018-07-21T02:50:07.895Z,94.30
2018-07-21T02:54:11.149Z,94.40
2018-07-21T02:58:14.406Z,94.10
2018-07-21T03:02:17.683Z,93.50
2018-07-21T03:06:20.951Z,93.60
2018-07-21T03:10:24.229Z,93.50
2018-07-21T03:14:27.490Z,93.90
2018-07-21T03:18:30.743Z,93.90
2018-07-21T03:22:33.999Z,94.00
2018-07-21T03:26:37.244Z,94.10
2018-07-21T03:30:41.970Z,94.00
2018-07-21T03:34:45.434Z,93.80
2018-07-21T03:38:50.489Z,94.10
2018-07-21T03:42:53.798Z,94.00
2018-07-21T03:46:57.049Z,95.20
2018-07-21T03:51:00.302Z,96.30
2018-07-21T03:55:03.608Z,96.80
2018-07-21T03:59:06.926Z,96.90
2018-07-21T04:03:10.186Z,96.80
2018-07-21T04:07:13.426Z,96.80
2018-07-21T04:11:16.737Z,96.70
2018-07-21T04:15:19.997Z,96.70
2018-07-21T04:19:23.302Z,96.60
2018-07-21T04:23:26.573Z,96.90
2018-07-21T04:27:29.857Z,96.60
2018-07-21T04:31:33.165Z,97.10
2018-07-21T04:35:36.418Z,96.80
2018-07-21T04:39:39.681Z,96.80
2018-07-21T04:43:42.940Z,97.10
2018-07-21T04:47:46.199Z,96.80
2018-07-21T04:51:49.480Z,96.30
2018-07-21T04:55:52.718Z,97.10
2018-07-21T04:59:55.997Z,97.40
2018-07-21T05:03:59.268Z,97.60
2018-07-21T05:08:02.797Z,97.60
2018-07-21T05:12:06.064Z,97.50
2018-07-21T05:16:09.330Z,97.50
2018-07-21T05:20:12.647Z,97.30
2018-07-21T05:24:15.841Z,97.30
2018-07-21T05:28:19.109Z,97.20
2018-07-21T05:32:22.442Z,96.80
2018-07-21T05:36:25.727Z,96.20
2018-07-21T05:40:28.975Z,95.40
2018-07-21T05:44:32.234Z,95.20
2018-07-21T05:48:35.639Z,95.30
2018-07-21T05:52:38.905Z,94.90
2018-07-21T05:56:42.148Z,94.90
2018-07-21T06:00:45.409Z,94.20
2018-07-21T06:04:48.665Z,94.40
2018-07-21T06:08:51.970Z,94.50
2018-07-21T06:12:56.091Z,94.20
2018-07-21T06:16:59.406Z,94.00
2018-07-21T06:21:02.637Z,92.80
2018-07-21T06:25:06.017Z,92.60
2018-07-21T06:29:09.282Z,92.30
2018-07-21T06:33:12.519Z,91.00
2018-07-21T06:37:15.778Z,91.20
2018-07-21T06:41:19.102Z,91.40
2018-07-21T06:45:22.384Z,91.50
2018-07-21T06:49:25.706Z,91.70
2018-07-21T06:53:28.902Z,91.60
2018-07-21T06:57:32.175Z,91.30
2018-07-21T07:01:35.429Z,90.60
2018-07-21T07:05:38.721Z,90.40
2018-07-21T07:09:42.034Z,87.50
2018-07-21T07:13:45.285Z,86.70
2018-07-21T07:17:48.521Z,87.50
2018-07-21T07:21:51.818Z,84.30
2018-07-21T07:25:55.074Z,82.60
2018-07-21T07:29:58.335Z,81.10
2018-07-21T07:34:01.601Z,79.90
2018-07-21T07:38:04.894Z,77.80
2018-07-21T07:46:11.134Z,76.40
2018-07-21T07:50:14.534Z,73.90
2018-07-21T07:54:17.774Z,73.90
2018-07-21T07:58:21.037Z,74.00
2018-07-21T08:02:24.318Z,73.80
2018-07-21T08:06:27.565Z,74.70
2018-07-21T08:10:30.849Z,75.60
2018-07-21T08:14:34.144Z,76.90
2018-07-21T08:18:37.394Z,75.70
2018-07-21T08:22:40.706Z,76.20
2018-07-21T08:26:43.998Z,74.70
2018-07-21T08:30:47.742Z,75.10
2018-07-21T08:34:51.202Z,74.50
2018-07-21T08:38:54.449Z,75.30
2018-07-21T08:42:57.781Z,73.70
2018-07-21T08:47:01.131Z,72.90
2018-07-21T08:51:04.450Z,71.50
2018-07-21T08:55:07.738Z,70.90
2018-07-21T08:59:11.009Z,70.50
2018-07-21T09:03:14.263Z,69.40
2018-07-21T09:07:17.571Z,68.40
2018-07-21T09:11:21.723Z,69.00
2018-07-21T09:15:24.969Z,68.80
2018-07-21T09:19:28.224Z,66.00
2018-07-21T09:23:31.486Z,62.60
2018-07-21T09:27:34.729Z,63.10
2018-07-21T09:31:37.993Z,59.40
2018-07-21T09:35:41.248Z,55.60
2018-07-21T09:39:44.929Z,56.50
2018-07-21T09:43:48.353Z,54.20
2018-07-21T09:47:54.205Z,53.30
2018-07-21T09:51:57.525Z,52.90
2018-07-21T09:56:00.855Z,51.80
2018-07-21T10:00:06.845Z,50.20
2018-07-21T10:04:10.906Z,47.70
2018-07-21T10:08:14.173Z,46.60
2018-07-21T10:12:17.446Z,44.20
2018-07-21T10:16:20.692Z,41.90
2018-07-21T10:20:24.087Z,44.50
2018-07-21T10:24:32.619Z,42.10
2018-07-21T10:28:41.371Z,43.50
2018-07-21T10:32:44.627Z,41.10
2018-07-21T10:36:48.114Z,43.90
2018-07-21T10:40:51.995Z,46.10
2018-07-21T10:44:55.233Z,45.50
2018-07-21T10:48:58.490Z,45.60
2018-07-21T10:53:01.785Z,42.00
2018-07-21T10:57:05.019Z,43.70
2018-07-21T11:01:08.274Z,41.30
2018-07-21T11:05:11.556Z,40.40
2018-07-21T11:09:14.802Z,38.50
2018-07-21T11:13:18.049Z,39.00
2018-07-21T11:17:21.316Z,40.50
2018-07-21T11:21:24.571Z,39.40
2018-07-21T11:25:27.796Z,39.40
2018-07-21T11:29:31.243Z,39.20
2018-07-21T11:33:34.526Z,39.00
2018-07-21T11:37:37.770Z,41.00
2018-07-21T11:41:41.014Z,41.00
2018-07-21T11:45:44.332Z,41.60
2018-07-21T11:49:50.976Z,41.20
2018-07-21T11:53:54.325Z,38.20
2018-07-21T11:57:58.408Z,37.60
2018-07-21T12:02:01.691Z,37.60
2018-07-21T12:06:04.951Z,35.40
2018-07-21T12:10:08.215Z,32.60
2018-07-21T12:14:11.449Z,34.00
2018-07-21T12:18:14.761Z,38.20
2018-07-21T12:22:18.041Z,37.50
2018-07-21T12:26:21.298Z,34.00
2018-07-21T12:30:24.627Z,34.80
2018-07-21T12:34:27.901Z,36.10
2018-07-21T12:38:31.170Z,33.00
2018-07-21T12:42:34.458Z,32.60
2018-07-21T12:46:37.752Z,32.00
2018-07-21T12:50:41.169Z,38.20
2018-07-21T12:54:44.770Z,37.70
2018-07-21T12:58:48.014Z,38.60
2018-07-21T13:02:51.270Z,38.70
2018-07-21T13:06:54.503Z,38.90
2018-07-21T13:10:57.784Z,38.50
2018-07-21T13:15:01.050Z,38.80
2018-07-21T13:19:05.812Z,37.80
2018-07-21T13:23:09.193Z,37.00
2018-07-21T13:27:12.713Z,40.10
2018-07-21T13:31:16.031Z,39.80
2018-07-21T13:35:19.859Z,41.10
2018-07-21T13:39:23.870Z,42.10
2018-07-21T13:43:27.909Z,43.20
2018-07-21T13:47:32.265Z,42.60
2018-07-21T13:51:35.558Z,42.70
2018-07-21T13:55:39.133Z,41.10
2018-07-21T13:59:43.225Z,41.20
2018-07-21T14:03:46.601Z,42.40
2018-07-21T14:07:50.858Z,39.90
2018-07-21T14:11:55.752Z,38.80
2018-07-21T14:16:00.565Z,38.20
2018-07-21T14:20:04.231Z,35.60
2018-07-21T14:24:07.481Z,34.70
2018-07-21T14:28:10.734Z,38.30
2018-07-21T14:32:13.995Z,38.70
2018-07-21T14:36:17.358Z,39.80
2018-07-21T14:40:20.525Z,40.80
2018-07-21T14:44:23.783Z,40.50
2018-07-21T14:48:27.042Z,39.70
2018-07-21T14:52:30.305Z,38.00
2018-07-21T14:56:33.590Z,35.70
2018-07-21T15:00:36.882Z,32.90
2018-07-21T15:04:40.122Z,33.20
2018-07-21T15:08:43.393Z,33.90
2018-07-21T15:12:46.637Z,40.00
2018-07-21T15:16:49.890Z,41.70
2018-07-21T15:20:53.126Z,44.30
2018-07-21T15:24:56.496Z,45.40
2018-07-21T15:33:02.742Z,51.00
2018-07-21T15:37:06.270Z,52.30
2018-07-21T15:41:09.549Z,52.30
2018-07-21T15:45:14.133Z,52.90
2018-07-21T15:49:17.629Z,52.80
2018-07-21T15:53:20.889Z,53.80
2018-07-21T15:57:24.141Z,53.80
2018-07-21T16:01:27.483Z,54.70
2018-07-21T16:05:30.761Z,55.00
2018-07-21T16:09:34.070Z,55.50
2018-07-21T16:13:37.267Z,54.40
2018-07-21T16:17:40.518Z,53.20
2018-07-21T16:21:43.767Z,53.30
2018-07-21T16:25:47.018Z,55.00
2018-07-21T16:29:50.276Z,56.30
2018-07-21T16:33:53.538Z,57.60
2018-07-21T16:37:56.809Z,57.00
2018-07-21T16:42:00.803Z,57.60
2018-07-21T16:46:04.077Z,58.00
2018-07-21T16:50:07.394Z,58.90
2018-07-21T16:54:10.622Z,58.50
2018-07-21T16:58:13.877Z,56.10
2018-07-21T17:02:18.180Z,55.10
2018-07-21T17:06:21.430Z,54.10
2018-07-21T17:10:24.805Z,54.70
2018-07-21T17:14:29.065Z,54.10
2018-07-21T17:18:32.302Z,54.70
2018-07-21T17:22:35.563Z,56.10
2018-07-21T17:26:38.814Z,57.30
2018-07-21T17:30:42.079Z,58.20
2018-07-21T17:34:45.317Z,57.30
2018-07-21T17:38:48.570Z,57.90
2018-07-21T17:42:52.054Z,59.00
2018-07-21T17:46:55.320Z,59.40
2018-07-21T17:50:58.563Z,60.40
2018-07-21T17:55:01.817Z,61.90
2018-07-21T17:59:05.080Z,63.30
2018-07-21T18:03:14.710Z,64.10
2018-07-21T18:07:18.029Z,65.40
2018-07-21T18:11:21.266Z,65.30
2018-07-21T18:15:24.546Z,66.70
2018-07-21T18:19:27.800Z,67.80
2018-07-21T18:23:31.183Z,67.80
2018-07-21T18:27:34.562Z,67.90
2018-07-21T18:31:37.847Z,68.90
2018-07-21T18:35:41.142Z,69.80
2018-07-21T18:39:44.510Z,70.20
2018-07-21T18:43:47.714Z,71.50
2018-07-21T18:47:50.966Z,73.30
2018-07-21T18:51:54.208Z,75.20
2018-07-21T18:55:57.469Z,76.20
2018-07-21T19:00:00.755Z,77.10
2018-07-21T19:04:04.019Z,77.10
2018-07-21T19:08:07.291Z,77.20
2018-07-21T19:12:22.579Z,78.80
2018-07-21T19:16:37.425Z,78.50
2018-07-21T19:20:46.119Z,78.90
2018-07-21T19:24:49.388Z,78.70
2018-07-21T19:28:52.903Z,78.10
2018-07-21T19:32:58.786Z,77.80
2018-07-21T19:37:02.054Z,77.40
2018-07-21T19:42:13.466Z,78.10
2018-07-21T19:46:16.739Z,78.30
2018-07-21T19:50:19.988Z,78.60
2018-07-21T19:54:23.243Z,78.50
2018-07-21T19:58:26.486Z,79.30
2018-07-21T20:02:29.811Z,80.20
2018-07-21T20:06:33.321Z,81.20
2018-07-21T20:10:36.586Z,82.00
2018-07-21T20:14:39.833Z,83.50
2018-07-21T20:18:43.127Z,82.90
2018-07-21T20:22:46.385Z,83.80
2018-07-21T20:26:49.725Z,83.00
2018-07-21T20:30:53.026Z,83.00
2018-07-21T20:34:56.284Z,83.20
2018-07-21T20:38:59.544Z,83.40
2018-07-21T20:43:02.873Z,83.80
2018-07-21T20:47:06.173Z,84.40
2018-07-21T20:51:09.487Z,85.00
2018-07-21T20:55:12.753Z,85.50
2018-07-21T20:59:16.005Z,86.50
2018-07-21T21:03:19.258Z,86.40
2018-07-21T21:07:22.530Z,87.30
2018-07-21T21:11:25.783Z,86.80
2018-07-21T21:15:29.058Z,86.50
2018-07-21T21:19:32.310Z,87.50
2018-07-21T21:23:35.566Z,89.80
2018-07-21T21:27:38.810Z,90.00
2018-07-21T21:31:42.062Z,90.00
2018-07-21T21:35:45.304Z,90.70
2018-07-21T21:39:48.548Z,90.60
2018-07-21T21:43:51.814Z,91.00
2018-07-21T21:47:55.107Z,91.60
2018-07-21T21:51:58.352Z,91.60
2018-07-21T21:56:01.603Z,91.70
2018-07-21T22:00:08.463Z,91.50
2018-07-21T22:04:11.735Z,91.60
2018-07-21T22:08:14.939Z,92.10
2018-07-21T22:12:18.206Z,91.90
2018-07-21T22:16:21.474Z,91.90
2018-07-21T22:24:27.718Z,91.80
2018-07-21T22:28:30.982Z,92.00
2018-07-21T22:32:34.230Z,92.00
2018-07-21T22:36:37.494Z,92.20
2018-07-21T22:40:40.745Z,92.30
2018-07-21T22:44:43.986Z,92.60
2018-07-21T22:48:47.263Z,92.70
2018-07-21T22:52:50.540Z,92.90
2018-07-21T22:56:53.844Z,92.90
2018-07-21T23:00:57.086Z,93.00
2018-07-21T23:05:00.373Z,93.10
2018-07-21T23:09:04.648Z,93.00
2018-07-21T23:13:08.155Z,93.10
2018-07-21T23:17:11.469Z,93.30
2018-07-21T23:21:14.749Z,93.20
2018-07-21T23:25:18.018Z,93.20
2018-07-21T23:29:21.387Z,93.30
2018-07-21T23:33:24.638Z,93.20
2018-07-21T23:37:27.889Z,93.50
2018-07-21T23:41:31.205Z,93.20
2018-07-21T23:45:34.499Z,93.00
2018-07-21T23:49:37.731Z,93.30
2018-07-21T23:57:43.959Z,93.10
